createdAt,value
2023-05-21T00:00:53.000Z,74.81
2023-05-21T00:01:52.000Z,74.92
2023-05-21T00:02:52.000Z,74.94
2023-05-21T00:03:52.000Z,75.08
2023-05-21T00:04:52.000Z,75.23
2023-05-21T00:05:53.000Z,75.05
2023-05-21T00:06:52.000Z,75.23
2023-05-21T00:07:53.000Z,74.95
2023-05-21T00:08:52.000Z,75.09
2023-05-21T00:09:52.000Z,74.77
2023-05-21T00:10:53.000Z,74.67
2023-05-21T00:11:52.000Z,74.67
2023-05-21T00:12:52.000Z,74.70
2023-05-21T00:13:52.000Z,75.28
2023-05-21T00:14:52.000Z,75.57
2023-05-21T00:15:52.000Z,75.72
2023-05-21T00:16:52.000Z,75.77
2023-05-21T00:17:52.000Z,76.09
2023-05-21T00:18:53.000Z,75.97
2023-05-21T00:19:53.000Z,76.08
2023-05-21T00:20:53.000Z,75.57
2023-05-21T00:21:53.000Z,76.08
2023-05-21T00:22:53.000Z,76.53
2023-05-21T00:23:55.000Z,76.65
2023-05-21T00:24:52.000Z,76.45
2023-05-21T00:25:53.000Z,76.51
2023-05-21T00:26:52.000Z,76.59
2023-05-21T00:27:54.000Z,76.71
2023-05-21T00:28:52.000Z,76.74
2023-05-21T00:29:52.000Z,77.08
2023-05-21T00:30:52.000Z,77.37
2023-05-21T00:31:52.000Z,76.99
2023-05-21T00:32:52.000Z,76.94
2023-05-21T00:33:53.000Z,76.45
2023-05-21T00:34:53.000Z,76.32
2023-05-21T00:35:53.000Z,76.41
2023-05-21T00:36:54.000Z,75.86
2023-05-21T00:37:52.000Z,75.59
2023-05-21T00:38:52.000Z,76.03
2023-05-21T00:39:52.000Z,75.66
2023-05-21T00:40:52.000Z,75.92
2023-05-21T00:41:52.000Z,75.73
2023-05-21T00:42:55.000Z,75.96
2023-05-21T00:43:52.000Z,75.72
2023-05-21T00:44:55.000Z,76.05
2023-05-21T00:45:55.000Z,76.02
2023-05-21T00:46:52.000Z,75.52
2023-05-21T00:47:56.000Z,75.65
2023-05-21T00:48:53.000Z,75.16
2023-05-21T00:49:53.000Z,75.91
2023-05-21T00:50:53.000Z,75.77
2023-05-21T00:51:54.000Z,76.13
2023-05-21T00:52:53.000Z,76.04
2023-05-21T00:53:52.000Z,75.95
2023-05-21T00:54:53.000Z,75.60
2023-05-21T00:55:52.000Z,75.70
2023-05-21T00:56:53.000Z,75.29
2023-05-21T00:57:52.000Z,75.80
2023-05-21T00:58:54.000Z,75.44
2023-05-21T00:59:53.000Z,75.29
2023-05-21T01:00:55.000Z,75.19
2023-05-21T01:01:55.000Z,75.86
2023-05-21T01:02:52.000Z,75.21
2023-05-21T01:03:53.000Z,75.43
2023-05-21T01:04:53.000Z,75.13
2023-05-21T01:05:52.000Z,75.87
2023-05-21T01:06:54.000Z,76.03
2023-05-21T01:07:53.000Z,75.52
2023-05-21T01:08:53.000Z,75.57
2023-05-21T01:09:52.000Z,75.53
2023-05-21T01:10:53.000Z,75.08
2023-05-21T01:11:53.000Z,75.74
2023-05-21T01:12:53.000Z,75.88
2023-05-21T01:13:52.000Z,75.69
2023-05-21T01:14:52.000Z,75.89
2023-05-21T01:15:52.000Z,75.37
2023-05-21T01:16:52.000Z,76.03
2023-05-21T01:17:52.000Z,75.70
2023-05-21T01:18:52.000Z,76.20
2023-05-21T01:19:55.000Z,76.50
2023-05-21T01:20:53.000Z,77.00
2023-05-21T01:21:58.000Z,76.24
2023-05-21T01:22:53.000Z,76.33
2023-05-21T01:23:52.000Z,76.04
2023-05-21T01:24:53.000Z,75.89
2023-05-21T01:25:52.000Z,75.66
2023-05-21T01:26:52.000Z,75.59
2023-05-21T01:27:52.000Z,76.14
2023-05-21T01:28:52.000Z,76.35
2023-05-21T01:29:52.000Z,76.23
2023-05-21T01:30:54.000Z,75.63
2023-05-21T01:32:02.000Z,76.36
2023-05-21T01:33:01.000Z,76.33
2023-05-21T01:33:58.000Z,76.03
2023-05-21T01:34:58.000Z,75.86
2023-05-21T01:36:03.000Z,76.25
2023-05-21T01:36:59.000Z,75.75
2023-05-21T01:38:27.000Z,75.60
2023-05-21T01:39:04.000Z,76.21
2023-05-21T01:39:58.000Z,76.39
2023-05-21T01:41:02.000Z,76.57
2023-05-21T01:41:53.000Z,76.52
2023-05-21T01:42:52.000Z,76.00
2023-05-21T01:43:55.000Z,76.10
2023-05-21T01:44:54.000Z,76.47
2023-05-21T01:45:54.000Z,76.23
2023-05-21T01:46:54.000Z,76.12
2023-05-21T01:47:53.000Z,76.31
2023-05-21T01:48:54.000Z,75.84
2023-05-21T01:49:52.000Z,76.23
2023-05-21T01:50:56.000Z,76.19
2023-05-21T01:51:52.000Z,75.98
2023-05-21T01:52:54.000Z,75.88
2023-05-21T01:53:52.000Z,75.88
2023-05-21T01:54:55.000Z,75.89
2023-05-21T01:55:53.000Z,75.91
2023-05-21T01:56:52.000Z,75.91
2023-05-21T01:57:54.000Z,75.78
2023-05-21T01:58:54.000Z,75.83
2023-05-21T01:59:53.000Z,75.95
2023-05-21T02:00:53.000Z,75.78
2023-05-21T02:01:52.000Z,75.67
2023-05-21T02:02:52.000Z,75.61
2023-05-21T02:03:52.000Z,75.58
2023-05-21T02:04:52.000Z,76.14
2023-05-21T02:05:54.000Z,75.92
2023-05-21T02:06:53.000Z,76.11
2023-05-21T02:07:52.000Z,75.74
2023-05-21T02:08:52.000Z,75.72
2023-05-21T02:09:52.000Z,76.22
2023-05-21T02:10:52.000Z,75.92
2023-05-21T02:11:52.000Z,76.05
2023-05-21T02:12:52.000Z,76.86
2023-05-21T02:13:52.000Z,77.36
2023-05-21T02:14:52.000Z,76.89
2023-05-21T02:15:53.000Z,76.45
2023-05-21T02:16:52.000Z,76.93
2023-05-21T02:17:52.000Z,77.22
2023-05-21T02:18:55.000Z,76.84
2023-05-21T02:19:52.000Z,76.57
2023-05-21T02:20:52.000Z,76.61
2023-05-21T02:21:52.000Z,76.88
2023-05-21T02:22:52.000Z,76.53
2023-05-21T02:23:52.000Z,76.91
2023-05-21T02:24:53.000Z,77.27
2023-05-21T02:25:52.000Z,77.14
2023-05-21T02:26:52.000Z,77.93
2023-05-21T02:27:55.000Z,78.17
2023-05-21T02:28:52.000Z,77.73
2023-05-21T02:29:52.000Z,77.43
2023-05-21T02:30:52.000Z,77.87
2023-05-21T02:31:52.000Z,77.23
2023-05-21T02:32:53.000Z,77.26
2023-05-21T02:33:52.000Z,77.37
2023-05-21T02:34:52.000Z,77.03
2023-05-21T02:35:52.000Z,77.02
2023-05-21T02:36:53.000Z,76.97
2023-05-21T02:37:52.000Z,76.89
2023-05-21T02:38:53.000Z,77.59
2023-05-21T02:39:53.000Z,77.76
2023-05-21T02:40:52.000Z,77.31
2023-05-21T02:41:52.000Z,77.48
2023-05-21T02:42:52.000Z,77.76
2023-05-21T02:43:52.000Z,77.67
2023-05-21T02:44:52.000Z,77.37
2023-05-21T02:45:52.000Z,78.07
2023-05-21T02:46:52.000Z,78.33
2023-05-21T02:47:52.000Z,78.45
2023-05-21T02:48:52.000Z,78.68
2023-05-21T02:49:52.000Z,78.19
2023-05-21T02:50:52.000Z,78.07
2023-05-21T02:51:52.000Z,78.47
2023-05-21T02:52:52.000Z,78.44
2023-05-21T02:53:52.000Z,78.85
2023-05-21T02:54:52.000Z,79.09
2023-05-21T02:55:52.000Z,78.98
2023-05-21T02:56:52.000Z,78.88
2023-05-21T02:57:52.000Z,78.38
2023-05-21T02:58:52.000Z,78.55
2023-05-21T02:59:52.000Z,78.59
2023-05-21T03:00:52.000Z,78.27
2023-05-21T03:01:52.000Z,78.57
2023-05-21T03:02:52.000Z,78.33
2023-05-21T03:03:52.000Z,78.75
2023-05-21T03:04:52.000Z,78.32
2023-05-21T03:05:52.000Z,78.66
2023-05-21T03:06:54.000Z,78.99
2023-05-21T03:07:52.000Z,78.83
2023-05-21T03:08:52.000Z,78.46
2023-05-21T03:09:52.000Z,78.70
2023-05-21T03:10:52.000Z,78.75
2023-05-21T03:11:52.000Z,78.10
2023-05-21T03:12:53.000Z,78.32
2023-05-21T03:13:52.000Z,78.48
2023-05-21T03:14:52.000Z,78.78
2023-05-21T03:15:56.000Z,78.33
2023-05-21T03:16:52.000Z,78.90
2023-05-21T03:17:53.000Z,78.72
2023-05-21T03:18:53.000Z,78.74
2023-05-21T03:19:53.000Z,78.44
2023-05-21T03:20:52.000Z,77.97
2023-05-21T03:21:53.000Z,78.04
2023-05-21T03:22:54.000Z,77.96
2023-05-21T03:23:57.000Z,78.11
2023-05-21T03:24:52.000Z,78.46
2023-05-21T03:25:52.000Z,78.86
2023-05-21T03:26:53.000Z,78.14
2023-05-21T03:27:52.000Z,78.24
2023-05-21T03:28:52.000Z,78.01
2023-05-21T03:29:54.000Z,78.16
2023-05-21T03:30:53.000Z,78.62
2023-05-21T03:31:53.000Z,77.94
2023-05-21T03:32:52.000Z,78.81
2023-05-21T03:33:52.000Z,79.17
2023-05-21T03:34:52.000Z,78.54
2023-05-21T03:35:53.000Z,78.76
2023-05-21T03:36:52.000Z,78.74
2023-05-21T03:37:52.000Z,78.45
2023-05-21T03:38:52.000Z,78.09
2023-05-21T03:39:52.000Z,78.81
2023-05-21T03:40:52.000Z,78.30
2023-05-21T03:41:52.000Z,78.34
2023-05-21T03:42:52.000Z,78.08
2023-05-21T03:43:52.000Z,78.21
2023-05-21T03:44:52.000Z,78.96
2023-05-21T03:45:52.000Z,78.86
2023-05-21T03:46:51.000Z,78.41
2023-05-21T03:47:51.000Z,79.01
2023-05-21T03:48:52.000Z,78.42
2023-05-21T03:49:51.000Z,78.40
2023-05-21T03:50:51.000Z,79.20
2023-05-21T03:51:52.000Z,78.68
2023-05-21T03:52:52.000Z,78.53
2023-05-21T03:53:51.000Z,79.63
2023-05-21T03:54:52.000Z,79.27
2023-05-21T03:55:53.000Z,79.46
2023-05-21T03:56:52.000Z,79.37
2023-05-21T03:57:51.000Z,79.63
2023-05-21T03:58:51.000Z,79.43
2023-05-21T03:59:51.000Z,78.86
2023-05-21T04:00:51.000Z,79.27
2023-05-21T04:01:51.000Z,78.84
2023-05-21T04:02:52.000Z,78.74
2023-05-21T04:03:52.000Z,79.14
2023-05-21T04:04:52.000Z,78.75
2023-05-21T04:05:52.000Z,78.79
2023-05-21T04:06:52.000Z,79.92
2023-05-21T04:07:52.000Z,79.33
2023-05-21T04:08:52.000Z,79.53
2023-05-21T04:09:52.000Z,78.96
2023-05-21T04:10:52.000Z,78.68
2023-05-21T04:11:52.000Z,78.64
2023-05-21T04:12:52.000Z,78.82
2023-05-21T04:13:52.000Z,79.67
2023-05-21T04:14:52.000Z,80.04
2023-05-21T04:15:53.000Z,79.61
2023-05-21T04:16:52.000Z,79.25
2023-05-21T04:17:53.000Z,80.12
2023-05-21T04:18:54.000Z,80.39
2023-05-21T04:19:53.000Z,79.67
2023-05-21T04:20:52.000Z,79.52
2023-05-21T04:21:52.000Z,79.19
2023-05-21T04:22:52.000Z,79.27
2023-05-21T04:23:52.000Z,79.31
2023-05-21T04:24:53.000Z,80.00
2023-05-21T04:25:52.000Z,79.72
2023-05-21T04:26:52.000Z,79.44
2023-05-21T04:27:53.000Z,80.05
2023-05-21T04:28:53.000Z,79.57
2023-05-21T04:29:53.000Z,79.62
2023-05-21T04:30:53.000Z,79.98
2023-05-21T04:31:52.000Z,80.04
2023-05-21T04:32:53.000Z,80.51
2023-05-21T04:33:52.000Z,80.62
2023-05-21T04:34:52.000Z,80.18
2023-05-21T04:35:54.000Z,81.11
2023-05-21T04:36:52.000Z,81.26
2023-05-21T04:37:53.000Z,81.19
2023-05-21T04:38:52.000Z,81.40
2023-05-21T04:39:53.000Z,81.28
2023-05-21T04:40:52.000Z,81.32
2023-05-21T04:41:53.000Z,80.85
2023-05-21T04:42:52.000Z,81.11
2023-05-21T04:43:54.000Z,80.50
2023-05-21T04:44:54.000Z,80.90
2023-05-21T04:45:54.000Z,80.44
2023-05-21T04:46:54.000Z,80.20
2023-05-21T04:47:52.000Z,80.30
2023-05-21T04:48:55.000Z,80.68
2023-05-21T04:49:52.000Z,81.12
2023-05-21T04:50:53.000Z,81.36
2023-05-21T04:51:52.000Z,81.41
2023-05-21T04:52:53.000Z,80.91
2023-05-21T04:53:53.000Z,81.00
2023-05-21T04:54:53.000Z,80.48
2023-05-21T04:55:52.000Z,80.29
2023-05-21T04:56:53.000Z,80.35
2023-05-21T04:57:52.000Z,80.63
2023-05-21T04:58:53.000Z,80.63
2023-05-21T04:59:52.000Z,80.15
2023-05-21T05:00:52.000Z,80.39
2023-05-21T05:01:52.000Z,80.62
2023-05-21T05:02:52.000Z,79.93
2023-05-21T05:03:52.000Z,80.16
2023-05-21T05:04:52.000Z,80.88
2023-05-21T05:05:52.000Z,80.69
2023-05-21T05:06:52.000Z,80.40
2023-05-21T05:07:52.000Z,80.60
2023-05-21T05:08:52.000Z,79.89
2023-05-21T05:09:51.000Z,80.03
2023-05-21T05:10:52.000Z,80.35
2023-05-21T05:11:52.000Z,80.25
2023-05-21T05:12:51.000Z,80.25
2023-05-21T05:13:52.000Z,80.49
2023-05-21T05:14:51.000Z,79.78
2023-05-21T05:15:52.000Z,79.70
2023-05-21T05:16:52.000Z,80.05
2023-05-21T05:17:52.000Z,80.09
2023-05-21T05:18:52.000Z,80.22
2023-05-21T05:19:52.000Z,79.97
2023-05-21T05:20:52.000Z,79.56
2023-05-21T05:21:52.000Z,79.89
2023-05-21T05:22:51.000Z,80.24
2023-05-21T05:23:51.000Z,80.85
2023-05-21T05:24:52.000Z,80.38
2023-05-21T05:25:51.000Z,81.07
2023-05-21T05:26:51.000Z,80.54
2023-05-21T05:27:52.000Z,80.35
2023-05-21T05:28:51.000Z,80.05
2023-05-21T05:29:52.000Z,80.07
2023-05-21T05:30:52.000Z,80.69
2023-05-21T05:31:52.000Z,80.85
2023-05-21T05:32:52.000Z,80.60
2023-05-21T05:33:52.000Z,80.93
2023-05-21T05:34:51.000Z,81.12
2023-05-21T05:35:52.000Z,80.68
2023-05-21T05:36:52.000Z,80.97
2023-05-21T05:37:52.000Z,81.42
2023-05-21T05:38:51.000Z,81.54
2023-05-21T05:39:51.000Z,81.52
2023-05-21T05:40:52.000Z,80.99
2023-05-21T05:41:52.000Z,80.63
2023-05-21T05:42:52.000Z,81.22
2023-05-21T05:43:52.000Z,80.50
2023-05-21T05:44:52.000Z,80.97
2023-05-21T05:45:52.000Z,81.46
2023-05-21T05:46:52.000Z,81.07
2023-05-21T05:47:52.000Z,80.80
2023-05-21T05:48:52.000Z,80.46
2023-05-21T05:49:52.000Z,80.49
2023-05-21T05:50:55.000Z,80.46
2023-05-21T05:51:52.000Z,81.15
2023-05-21T05:52:52.000Z,81.74
2023-05-21T05:53:52.000Z,81.52
2023-05-21T05:54:52.000Z,81.41
2023-05-21T05:55:52.000Z,81.38
2023-05-21T05:56:52.000Z,81.37
2023-05-21T05:57:52.000Z,81.42
2023-05-21T05:58:52.000Z,80.97
2023-05-21T05:59:51.000Z,81.05
2023-05-21T06:00:52.000Z,80.89
2023-05-21T06:01:52.000Z,80.68
2023-05-21T06:02:52.000Z,80.83
2023-05-21T06:03:52.000Z,81.25
2023-05-21T06:04:52.000Z,81.20
2023-05-21T06:05:52.000Z,81.67
2023-05-21T06:06:52.000Z,81.02
2023-05-21T06:07:52.000Z,81.50
2023-05-21T06:08:52.000Z,81.50
2023-05-21T06:09:52.000Z,81.84
2023-05-21T06:10:52.000Z,82.08
2023-05-21T06:11:52.000Z,81.49
2023-05-21T06:12:52.000Z,81.16
2023-05-21T06:13:51.000Z,81.58
2023-05-21T06:14:51.000Z,81.63
2023-05-21T06:15:51.000Z,81.86
2023-05-21T06:16:51.000Z,82.05
2023-05-21T06:17:52.000Z,81.85
2023-05-21T06:18:51.000Z,81.65
2023-05-21T06:19:51.000Z,81.83
2023-05-21T06:20:52.000Z,81.92
2023-05-21T06:21:51.000Z,81.49
2023-05-21T06:22:51.000Z,81.88
2023-05-21T06:23:51.000Z,81.89
2023-05-21T06:24:52.000Z,82.30
2023-05-21T06:25:51.000Z,82.11
2023-05-21T06:26:52.000Z,82.07
2023-05-21T06:27:51.000Z,82.08
2023-05-21T06:28:52.000Z,81.92
2023-05-21T06:29:51.000Z,81.80
2023-05-21T06:30:52.000Z,81.75
2023-05-21T06:31:51.000Z,81.90
2023-05-21T06:32:52.000Z,81.75
2023-05-21T06:33:52.000Z,81.80
2023-05-21T06:34:51.000Z,81.49
2023-05-21T06:35:51.000Z,81.40
2023-05-21T06:36:52.000Z,81.50
2023-05-21T06:37:51.000Z,81.42
2023-05-21T06:38:51.000Z,81.27
2023-05-21T06:39:52.000Z,81.61
2023-05-21T06:40:51.000Z,81.22
2023-05-21T06:41:51.000Z,81.12
2023-05-21T06:42:51.000Z,81.19
2023-05-21T06:43:51.000Z,80.93
2023-05-21T06:44:51.000Z,80.28
2023-05-21T06:45:52.000Z,80.14
2023-05-21T06:46:52.000Z,79.99
2023-05-21T06:47:51.000Z,80.32
2023-05-21T06:48:52.000Z,80.04
2023-05-21T06:49:52.000Z,80.14
2023-05-21T06:50:51.000Z,79.78
2023-05-21T06:51:51.000Z,79.82
2023-05-21T06:52:51.000Z,79.61
2023-05-21T06:53:52.000Z,79.44
2023-05-21T06:54:52.000Z,79.36
2023-05-21T06:55:52.000Z,79.17
2023-05-21T06:56:51.000Z,79.60
2023-05-21T06:57:52.000Z,79.29
2023-05-21T06:58:52.000Z,79.36
2023-05-21T06:59:51.000Z,79.36
2023-05-21T07:00:51.000Z,79.02
2023-05-21T07:01:52.000Z,78.77
2023-05-21T07:02:52.000Z,78.48
2023-05-21T07:03:52.000Z,78.63
2023-05-21T07:04:52.000Z,78.88
2023-05-21T07:05:52.000Z,78.72
2023-05-21T07:06:52.000Z,78.28
2023-05-21T07:07:52.000Z,78.18
2023-05-21T07:08:52.000Z,78.75
2023-05-21T07:09:53.000Z,78.30
2023-05-21T07:10:52.000Z,77.41
2023-05-21T07:11:51.000Z,77.61
2023-05-21T07:12:51.000Z,77.69
2023-05-21T07:13:51.000Z,77.81
2023-05-21T07:14:51.000Z,77.73
2023-05-21T07:15:51.000Z,77.58
2023-05-21T07:16:51.000Z,77.81
2023-05-21T07:17:51.000Z,77.86
2023-05-21T07:18:51.000Z,77.86
2023-05-21T07:19:51.000Z,77.57
2023-05-21T07:20:52.000Z,77.41
2023-05-21T07:21:51.000Z,77.41
2023-05-21T07:22:51.000Z,77.12
2023-05-21T07:23:51.000Z,77.16
2023-05-21T07:24:51.000Z,77.69
2023-05-21T07:25:52.000Z,77.07
2023-05-21T07:26:51.000Z,76.84
2023-05-21T07:27:51.000Z,76.90
2023-05-21T07:28:51.000Z,77.00
2023-05-21T07:29:51.000Z,77.19
2023-05-21T07:30:52.000Z,77.28
2023-05-21T07:31:51.000Z,77.51
2023-05-21T07:32:51.000Z,76.85
2023-05-21T07:33:51.000Z,77.33
2023-05-21T07:34:51.000Z,76.24
2023-05-21T07:35:51.000Z,76.20
2023-05-21T07:36:52.000Z,75.74
2023-05-21T07:37:51.000Z,75.82
2023-05-21T07:38:52.000Z,76.90
2023-05-21T07:39:52.000Z,76.61
2023-05-21T07:40:51.000Z,76.27
2023-05-21T07:41:51.000Z,75.80
2023-05-21T07:42:51.000Z,75.46
2023-05-21T07:43:51.000Z,74.87
2023-05-21T07:44:51.000Z,75.57
2023-05-21T07:45:51.000Z,75.50
2023-05-21T07:46:52.000Z,75.15
2023-05-21T07:47:51.000Z,74.58
2023-05-21T07:48:51.000Z,74.57
2023-05-21T07:49:51.000Z,74.81
2023-05-21T07:50:51.000Z,74.04
2023-05-21T07:51:52.000Z,73.74
2023-05-21T07:52:51.000Z,73.32
2023-05-21T07:53:51.000Z,73.54
2023-05-21T07:54:51.000Z,73.86
2023-05-21T07:55:51.000Z,73.89
2023-05-21T07:56:51.000Z,73.72
2023-05-21T07:57:51.000Z,73.80
2023-05-21T07:58:52.000Z,73.92
2023-05-21T07:59:51.000Z,73.59
2023-05-21T08:00:52.000Z,73.69
2023-05-21T08:01:52.000Z,73.53
2023-05-21T08:02:51.000Z,72.93
2023-05-21T08:03:51.000Z,73.27
2023-05-21T08:04:53.000Z,73.60
2023-05-21T08:05:51.000Z,72.95
2023-05-21T08:06:52.000Z,73.04
2023-05-21T08:07:51.000Z,73.94
2023-05-21T08:08:52.000Z,73.39
2023-05-21T08:09:52.000Z,73.21
2023-05-21T08:10:51.000Z,73.80
2023-05-21T08:11:51.000Z,73.80
2023-05-21T08:12:52.000Z,73.41
2023-05-21T08:13:52.000Z,73.39
2023-05-21T08:14:51.000Z,73.54
2023-05-21T08:15:52.000Z,73.45
2023-05-21T08:16:52.000Z,72.24
2023-05-21T08:17:52.000Z,72.97
2023-05-21T08:18:51.000Z,72.06
2023-05-21T08:19:52.000Z,71.97
2023-05-21T08:20:52.000Z,72.24
2023-05-21T08:21:51.000Z,71.99
2023-05-21T08:22:52.000Z,72.48
2023-05-21T08:23:52.000Z,72.45
2023-05-21T08:24:52.000Z,71.77
2023-05-21T08:25:51.000Z,71.74
2023-05-21T08:26:52.000Z,71.62
2023-05-21T08:27:52.000Z,71.43
2023-05-21T08:28:52.000Z,72.06
2023-05-21T08:29:52.000Z,71.24
2023-05-21T08:30:52.000Z,68.78
2023-05-21T08:31:51.000Z,68.94
2023-05-21T08:32:53.000Z,69.83
2023-05-21T08:33:52.000Z,69.07
2023-05-21T08:34:52.000Z,69.61
2023-05-21T08:35:52.000Z,68.42
2023-05-21T08:36:52.000Z,69.01
2023-05-21T08:37:51.000Z,69.92
2023-05-21T08:38:51.000Z,69.61
2023-05-21T08:39:52.000Z,70.04
2023-05-21T08:40:53.000Z,69.17
2023-05-21T08:42:00.000Z,68.04
2023-05-21T08:42:52.000Z,69.04
2023-05-21T08:43:54.000Z,69.07
2023-05-21T08:44:57.000Z,67.99
2023-05-21T08:45:55.000Z,68.26
2023-05-21T08:46:55.000Z,67.93
2023-05-21T08:47:56.000Z,68.01
2023-05-21T08:48:55.000Z,67.60
2023-05-21T08:49:53.000Z,67.29
2023-05-21T08:50:53.000Z,65.01
2023-05-21T08:51:52.000Z,65.09
2023-05-21T08:52:53.000Z,64.77
2023-05-21T08:53:52.000Z,63.89
2023-05-21T08:54:53.000Z,63.81
2023-05-21T08:55:53.000Z,63.99
2023-05-21T08:56:54.000Z,63.76
2023-05-21T08:57:53.000Z,63.11
2023-05-21T08:58:52.000Z,63.67
2023-05-21T08:59:52.000Z,64.12
2023-05-21T09:00:53.000Z,64.10
2023-05-21T09:01:52.000Z,64.12
2023-05-21T09:02:53.000Z,64.90
2023-05-21T09:03:55.000Z,63.87
2023-05-21T09:04:57.000Z,64.29
2023-05-21T09:05:53.000Z,64.35
2023-05-21T09:06:53.000Z,63.27
2023-05-21T09:08:01.000Z,63.92
2023-05-21T09:09:00.000Z,62.36
2023-05-21T09:10:00.000Z,61.33
2023-05-21T09:10:52.000Z,61.98
2023-05-21T09:11:57.000Z,61.27
2023-05-21T09:12:52.000Z,61.48
2023-05-21T09:13:52.000Z,61.72
2023-05-21T09:14:52.000Z,61.89
2023-05-21T09:15:51.000Z,62.64
2023-05-21T09:16:51.000Z,62.41
2023-05-21T09:17:52.000Z,63.07
2023-05-21T09:18:51.000Z,63.74
2023-05-21T09:20:01.000Z,64.16
2023-05-21T09:20:52.000Z,63.46
2023-05-21T09:21:51.000Z,61.39
2023-05-21T09:22:52.000Z,61.85
2023-05-21T09:23:53.000Z,62.75
2023-05-21T09:24:51.000Z,63.15
2023-05-21T09:25:51.000Z,63.32
2023-05-21T09:26:51.000Z,63.72
2023-05-21T09:27:54.000Z,63.55
2023-05-21T09:28:55.000Z,62.56
2023-05-21T09:29:51.000Z,63.18
2023-05-21T09:30:52.000Z,63.11
2023-05-21T09:31:52.000Z,63.13
2023-05-21T09:32:56.000Z,63.07
2023-05-21T09:33:53.000Z,62.48
2023-05-21T09:34:51.000Z,60.90
2023-05-21T09:35:51.000Z,61.51
2023-05-21T09:36:54.000Z,59.80
2023-05-21T09:37:52.000Z,60.44
2023-05-21T09:38:51.000Z,59.31
2023-05-21T09:39:51.000Z,59.71
2023-05-21T09:40:55.000Z,59.87
2023-05-21T09:41:54.000Z,60.06
2023-05-21T09:42:52.000Z,61.45
2023-05-21T09:43:57.000Z,60.69
2023-05-21T09:44:51.000Z,61.14
2023-05-21T09:45:53.000Z,61.48
2023-05-21T09:46:55.000Z,61.87
2023-05-21T09:47:53.000Z,61.44
2023-05-21T09:48:51.000Z,60.78
2023-05-21T09:49:56.000Z,60.40
2023-05-21T09:50:51.000Z,60.70
2023-05-21T09:51:55.000Z,61.43
2023-05-21T09:52:52.000Z,60.33
2023-05-21T09:53:53.000Z,61.04
2023-05-21T09:54:51.000Z,61.20
2023-05-21T09:55:55.000Z,62.05
2023-05-21T09:56:51.000Z,61.31
2023-05-21T09:57:51.000Z,60.88
2023-05-21T09:58:54.000Z,61.63
2023-05-21T09:59:51.000Z,61.46
2023-05-21T10:00:52.000Z,61.66
2023-05-21T10:01:53.000Z,61.68
2023-05-21T10:02:59.000Z,61.82
2023-05-21T10:03:56.000Z,61.62
2023-05-21T10:04:55.000Z,61.18
2023-05-21T10:05:53.000Z,61.18
2023-05-21T10:06:51.000Z,60.76
2023-05-21T10:07:59.000Z,61.12
2023-05-21T10:08:53.000Z,61.51
2023-05-21T10:09:53.000Z,61.70
2023-05-21T10:10:51.000Z,59.06
2023-05-21T10:11:52.000Z,59.39
2023-05-21T10:12:56.000Z,58.96
2023-05-21T10:14:03.000Z,59.91
2023-05-21T10:15:01.000Z,60.51
2023-05-21T10:15:59.000Z,59.72
2023-05-21T10:16:53.000Z,60.72
2023-05-21T10:17:53.000Z,59.29
2023-05-21T10:18:52.000Z,59.32
2023-05-21T10:19:53.000Z,60.18
2023-05-21T10:20:52.000Z,60.94
2023-05-21T10:21:52.000Z,61.24
2023-05-21T10:22:52.000Z,60.10
2023-05-21T10:23:53.000Z,60.10
2023-05-21T10:24:52.000Z,59.59
2023-05-21T10:25:51.000Z,59.65
2023-05-21T10:26:52.000Z,58.65
2023-05-21T10:27:53.000Z,58.85
2023-05-21T10:28:54.000Z,59.48
2023-05-21T10:29:54.000Z,58.07
2023-05-21T10:30:52.000Z,58.59
2023-05-21T10:31:51.000Z,58.30
2023-05-21T10:32:53.000Z,58.46
2023-05-21T10:33:52.000Z,58.11
2023-05-21T10:34:52.000Z,58.69
2023-05-21T10:35:52.000Z,59.39
2023-05-21T10:37:03.000Z,58.89
2023-05-21T10:37:52.000Z,58.27
2023-05-21T10:38:52.000Z,59.29
2023-05-21T10:39:53.000Z,59.10
2023-05-21T10:40:52.000Z,59.54
2023-05-21T10:42:05.000Z,58.99
2023-05-21T10:43:01.000Z,58.94
2023-05-21T10:44:02.000Z,58.91
2023-05-21T10:45:12.000Z,58.73
2023-05-21T10:46:01.000Z,58.01
2023-05-21T10:47:03.000Z,58.30
2023-05-21T10:48:03.000Z,58.03
2023-05-21T10:49:16.000Z,58.09
2023-05-21T10:50:07.000Z,58.83
2023-05-21T10:51:14.000Z,57.91
2023-05-21T10:52:02.000Z,58.26
2023-05-21T10:53:12.000Z,58.35
2023-05-21T10:54:01.000Z,58.19
2023-05-21T10:55:01.000Z,58.08
2023-05-21T10:56:03.000Z,59.02
2023-05-21T10:57:01.000Z,59.41
2023-05-21T10:58:15.000Z,58.61
2023-05-21T10:59:01.000Z,58.97
2023-05-21T10:59:52.000Z,57.55
2023-05-21T11:00:52.000Z,57.38
2023-05-21T11:01:52.000Z,57.45
2023-05-21T11:02:52.000Z,57.90
2023-05-21T11:03:53.000Z,57.53
2023-05-21T11:04:57.000Z,57.83
2023-05-21T11:05:55.000Z,58.03
2023-05-21T11:06:52.000Z,57.67
2023-05-21T11:07:55.000Z,58.11
2023-05-21T11:08:52.000Z,57.90
2023-05-21T11:09:52.000Z,57.15
2023-05-21T11:10:56.000Z,57.18
2023-05-21T11:11:55.000Z,57.36
2023-05-21T11:13:12.000Z,57.39
2023-05-21T11:13:51.000Z,56.79
2023-05-21T11:14:55.000Z,56.65
2023-05-21T11:16:11.000Z,56.01
2023-05-21T11:16:52.000Z,56.43
2023-05-21T11:17:54.000Z,56.33
2023-05-21T11:18:56.000Z,57.19
2023-05-21T11:19:52.000Z,57.24
2023-05-21T11:20:51.000Z,56.82
2023-05-21T11:21:53.000Z,56.46
2023-05-21T11:22:51.000Z,56.42
2023-05-21T11:23:53.000Z,56.13
2023-05-21T11:25:00.000Z,56.43
2023-05-21T11:25:59.000Z,57.00
2023-05-21T11:27:08.000Z,53.62
2023-05-21T11:27:51.000Z,53.68
2023-05-21T11:29:01.000Z,54.41
2023-05-21T11:29:53.000Z,55.40
2023-05-21T11:31:01.000Z,55.67
2023-05-21T11:31:57.000Z,55.44
2023-05-21T11:33:01.000Z,54.04
2023-05-21T11:34:01.000Z,55.27
2023-05-21T11:34:51.000Z,54.68
2023-05-21T11:35:56.000Z,55.79
2023-05-21T11:37:02.000Z,55.05
2023-05-21T11:37:52.000Z,53.38
2023-05-21T11:39:11.000Z,54.04
2023-05-21T11:39:52.000Z,53.55
2023-05-21T11:41:01.000Z,53.64
2023-05-21T11:41:55.000Z,54.81
2023-05-21T11:42:53.000Z,55.56
2023-05-21T11:43:59.000Z,55.24
2023-05-21T11:44:51.000Z,54.98
2023-05-21T11:45:52.000Z,53.91
2023-05-21T11:46:52.000Z,54.65
2023-05-21T11:47:52.000Z,54.73
2023-05-21T11:48:53.000Z,54.92
2023-05-21T11:49:52.000Z,55.06
2023-05-21T11:50:52.000Z,55.74
2023-05-21T11:51:51.000Z,55.41
2023-05-21T11:52:51.000Z,54.93
2023-05-21T11:53:51.000Z,55.03
2023-05-21T11:54:55.000Z,55.01
2023-05-21T11:55:56.000Z,55.10
2023-05-21T11:56:53.000Z,55.04
2023-05-21T11:57:52.000Z,55.02
2023-05-21T11:58:53.000Z,54.76
2023-05-21T11:59:51.000Z,53.70
2023-05-21T12:00:52.000Z,53.89
2023-05-21T12:01:53.000Z,54.09
2023-05-21T12:02:52.000Z,53.39
2023-05-21T12:03:51.000Z,53.62
2023-05-21T12:04:52.000Z,53.40
2023-05-21T12:05:52.000Z,52.96
2023-05-21T12:06:51.000Z,53.33
2023-05-21T12:07:53.000Z,53.33
2023-05-21T12:08:56.000Z,53.63
2023-05-21T12:09:51.000Z,53.73
2023-05-21T12:10:57.000Z,52.71
2023-05-21T12:11:51.000Z,52.76
2023-05-21T12:12:51.000Z,52.52
2023-05-21T12:13:51.000Z,51.92
2023-05-21T12:14:53.000Z,50.32
2023-05-21T12:15:55.000Z,50.96
2023-05-21T12:16:53.000Z,50.86
2023-05-21T12:17:53.000Z,49.56
2023-05-21T12:18:53.000Z,49.69
2023-05-21T12:19:53.000Z,48.51
2023-05-21T12:20:52.000Z,48.97
2023-05-21T12:21:52.000Z,49.77
2023-05-21T12:22:52.000Z,48.88
2023-05-21T12:23:52.000Z,49.11
2023-05-21T12:24:52.000Z,48.77
2023-05-21T12:25:52.000Z,48.90
2023-05-21T12:26:54.000Z,46.08
2023-05-21T12:27:56.000Z,46.81
2023-05-21T12:28:53.000Z,44.98
2023-05-21T12:29:52.000Z,43.76
2023-05-21T12:30:52.000Z,45.14
2023-05-21T12:31:52.000Z,45.16
2023-05-21T12:32:52.000Z,45.73
2023-05-21T12:33:52.000Z,45.77
2023-05-21T12:34:54.000Z,45.50
2023-05-21T12:35:52.000Z,46.32
2023-05-21T12:36:52.000Z,46.02
2023-05-21T12:37:52.000Z,46.37
2023-05-21T12:38:53.000Z,45.54
2023-05-21T12:39:54.000Z,46.46
2023-05-21T12:40:52.000Z,46.79
2023-05-21T12:41:53.000Z,46.41
2023-05-21T12:42:52.000Z,46.68
2023-05-21T12:43:52.000Z,46.33
2023-05-21T12:44:52.000Z,46.54
2023-05-21T12:45:52.000Z,45.05
2023-05-21T12:46:52.000Z,46.38
2023-05-21T12:47:54.000Z,45.22
2023-05-21T12:48:52.000Z,45.59
2023-05-21T12:49:56.000Z,47.25
2023-05-21T12:50:51.000Z,46.51
2023-05-21T12:51:54.000Z,46.69
2023-05-21T12:52:52.000Z,46.86